createdAt,value
2023-01-08T00:02:41.882Z,3.47
2023-01-08T00:05:43.790Z,3.10
2023-01-08T00:08:46.263Z,3.65
2023-01-08T00:11:48.177Z,3.22
2023-01-08T00:14:50.140Z,3.20
2023-01-08T00:17:52.043Z,3.83
2023-01-08T00:20:56.395Z,2.78
2023-01-08T00:23:58.378Z,3.50
2023-01-08T00:27:00.215Z,3.08
2023-01-08T00:30:02.196Z,3.30
2023-01-08T00:33:04.239Z,3.15
2023-01-08T00:36:11.652Z,2.83
2023-01-08T00:39:13.573Z,3.22
2023-01-08T00:42:15.484Z,3.63
2023-01-08T00:45:17.351Z,3.50
2023-01-08T00:48:20.005Z,4.18
2023-01-08T00:51:21.855Z,4.53
2023-01-08T00:54:23.698Z,3.95
2023-01-08T00:57:25.539Z,3.95
2023-01-08T01:00:27.518Z,4.40
2023-01-08T01:03:29.361Z,4.72
2023-01-08T01:06:31.279Z,4.15
2023-01-08T01:09:33.136Z,4.03
2023-01-08T01:12:36.774Z,4.22
2023-01-08T01:15:38.779Z,4.85
2023-01-08T01:18:41.072Z,4.20
2023-01-08T01:21:43.693Z,4.55
2023-01-08T01:24:45.664Z,4.35
2023-01-08T01:27:47.617Z,4.78
2023-01-08T01:30:56.956Z,4.57
2023-01-08T01:33:59.500Z,4.43
2023-01-08T01:37:01.383Z,4.65
2023-01-08T01:40:06.266Z,4.18
2023-01-08T01:43:13.669Z,4.50
2023-01-08T01:46:22.418Z,4.60
2023-01-08T01:52:28.753Z,4.70
2023-01-08T01:55:31.669Z,4.20
2023-01-08T01:58:34.094Z,4.70
2023-01-08T02:01:36.596Z,4.55
2023-01-08T02:04:38.576Z,4.97
2023-01-08T02:07:50.059Z,4.50
2023-01-08T02:10:57.640Z,4.53
2023-01-08T02:14:14.223Z,3.92
2023-01-08T02:17:20.961Z,4.07
2023-01-08T02:21:02.974Z,4.63
2023-01-08T02:24:23.399Z,4.13
2023-01-08T02:27:29.283Z,3.70
2023-01-08T02:30:31.387Z,4.32
2023-01-08T02:33:33.848Z,3.63
2023-01-08T02:36:46.224Z,4.05
2023-01-08T02:40:09.628Z,3.25
2023-01-08T02:43:17.805Z,3.30
2023-01-08T02:46:26.363Z,3.75
2023-01-08T02:49:32.238Z,3.53
2023-01-08T02:52:36.891Z,3.53
2023-01-08T02:55:42.208Z,3.55
2023-01-08T02:58:45.508Z,3.92
2023-01-08T03:01:47.949Z,3.47
2023-01-08T03:04:55.109Z,3.17
2023-01-08T03:07:57.056Z,3.75
2023-01-08T03:11:08.477Z,3.50
2023-01-08T03:14:25.374Z,3.80
2023-01-08T03:17:33.031Z,3.80
2023-01-08T03:20:38.149Z,3.53
2023-01-08T03:23:42.723Z,4.00
2023-01-08T03:26:49.098Z,3.90
2023-01-08T03:29:55.907Z,3.58
2023-01-08T03:33:00.851Z,3.78
2023-01-08T03:36:05.412Z,3.90
2023-01-08T03:39:14.326Z,4.18
2023-01-08T03:42:19.663Z,3.72
2023-01-08T03:45:23.845Z,3.30
2023-01-08T03:48:28.546Z,3.75
2023-01-08T03:51:40.168Z,3.88
2023-01-08T03:54:42.026Z,3.28
2023-01-08T03:57:43.976Z,3.50
2023-01-08T04:00:45.822Z,3.88
2023-01-08T04:03:49.402Z,3.85
2023-01-08T04:06:52.983Z,3.47
2023-01-08T04:09:54.853Z,3.53
2023-01-08T04:12:56.721Z,3.70
2023-01-08T04:15:58.675Z,3.53
2023-01-08T04:19:00.615Z,3.63
2023-01-08T04:22:02.483Z,3.20
2023-01-08T04:25:04.849Z,3.95
2023-01-08T04:28:07.088Z,3.20
2023-01-08T04:31:10.733Z,4.30
2023-01-08T04:34:12.795Z,3.97
2023-01-08T04:37:14.713Z,3.78
2023-01-08T04:40:18.813Z,3.65
2023-01-08T04:43:20.712Z,3.80
2023-01-08T04:46:22.578Z,3.40
2023-01-08T04:49:24.573Z,3.78
2023-01-08T04:52:29.365Z,4.03
2023-01-08T04:55:31.193Z,3.70
2023-01-08T04:58:36.942Z,3.83
2023-01-08T05:01:38.892Z,4.60
2023-01-08T05:04:40.876Z,4.97
2023-01-08T05:07:42.756Z,4.15
2023-01-08T05:10:44.698Z,4.00
2023-01-08T05:13:54.220Z,4.22
2023-01-08T05:16:58.570Z,3.85
2023-01-08T05:20:00.847Z,4.22
2023-01-08T05:23:02.855Z,3.92
2023-01-08T05:26:06.735Z,4.90
2023-01-08T05:29:10.312Z,4.13
2023-01-08T05:32:18.854Z,4.22
2023-01-08T05:35:20.685Z,3.60
2023-01-08T05:38:23.017Z,4.10
2023-01-08T05:41:24.957Z,4.68
2023-01-08T05:44:26.786Z,4.07
2023-01-08T05:47:32.808Z,4.30
2023-01-08T05:50:35.731Z,3.95
2023-01-08T05:53:37.664Z,4.07
2023-01-08T05:56:40.346Z,3.10
2023-01-08T06:02:48.064Z,3.40
2023-01-08T06:05:50.169Z,3.55
2023-01-08T06:08:52.129Z,3.28
2023-01-08T06:11:53.992Z,3.40
2023-01-08T06:14:55.851Z,3.13
2023-01-08T06:17:57.681Z,2.90
2023-01-08T06:20:59.645Z,3.78
2023-01-08T06:24:01.494Z,3.00
2023-01-08T06:27:05.602Z,3.20
2023-01-08T06:30:09.658Z,3.08
2023-01-08T06:33:11.504Z,3.30
2023-01-08T06:36:13.491Z,3.65
2023-01-08T06:39:15.321Z,3.38
2023-01-08T06:42:17.169Z,2.80
2023-01-08T06:45:19.197Z,3.45
2023-01-08T06:48:23.240Z,3.05
2023-01-08T06:51:27.536Z,3.00
2023-01-08T06:54:29.553Z,3.20
2023-01-08T06:57:31.910Z,3.13
2023-01-08T07:00:34.188Z,3.20
2023-01-08T07:03:36.104Z,3.00
2023-01-08T07:06:38.074Z,2.95
2023-01-08T07:09:43.379Z,2.97
2023-01-08T07:12:45.259Z,3.17
2023-01-08T07:15:47.181Z,2.90
2023-01-08T07:18:49.167Z,2.90
2023-01-08T07:21:50.948Z,2.90
2023-01-08T07:24:53.266Z,2.95
2023-01-08T07:27:55.069Z,4.13
2023-01-08T07:30:57.354Z,2.55
2023-01-08T07:33:59.359Z,3.30
2023-01-08T07:37:01.696Z,3.50
2023-01-08T07:40:03.798Z,3.72
2023-01-08T07:43:05.645Z,3.17
2023-01-08T07:46:07.643Z,3.55
2023-01-08T07:49:12.695Z,3.28
2023-01-08T07:52:14.589Z,3.83
2023-01-08T07:55:16.583Z,3.10
2023-01-08T07:58:18.420Z,3.28
2023-01-08T08:01:20.476Z,3.72
2023-01-08T08:04:22.706Z,3.90
2023-01-08T08:07:24.629Z,3.95
2023-01-08T08:10:26.541Z,3.50
2023-01-08T08:13:30.057Z,5.63
2023-01-08T08:16:31.961Z,5.05
2023-01-08T08:19:33.887Z,4.95
2023-01-08T08:22:35.708Z,4.32
2023-01-08T08:25:37.755Z,3.60
2023-01-08T08:28:39.723Z,3.85
2023-01-08T08:31:41.598Z,2.70
2023-01-08T08:34:43.437Z,3.20
2023-01-08T08:37:45.293Z,3.33
2023-01-08T08:40:47.125Z,2.75
2023-01-08T08:43:48.974Z,3.15
2023-01-08T08:46:50.855Z,2.25
2023-01-08T08:49:52.826Z,2.63
2023-01-08T08:53:00.286Z,1.92
2023-01-08T08:56:02.193Z,2.05
2023-01-08T08:59:04.036Z,3.03
2023-01-08T09:02:07.181Z,3.33
2023-01-08T09:05:09.940Z,3.13
2023-01-08T09:08:12.885Z,3.17
2023-01-08T09:11:14.831Z,3.45
2023-01-08T09:14:16.724Z,3.58
2023-01-08T09:17:18.754Z,3.33
2023-01-08T09:20:20.886Z,2.92
2023-01-08T09:23:22.864Z,2.88
2023-01-08T09:26:24.785Z,3.50
2023-01-08T09:29:27.438Z,2.95
2023-01-08T09:35:32.230Z,2.17
2023-01-08T09:38:34.084Z,2.03
2023-01-08T09:41:40.919Z,1.80
2023-01-08T09:44:47.547Z,1.92
2023-01-08T09:47:49.816Z,2.10
2023-01-08T09:50:51.973Z,2.30
2023-01-08T09:53:59.079Z,1.83
2023-01-08T09:57:01.301Z,2.05
2023-01-08T10:00:04.548Z,1.80
2023-01-08T10:03:12.268Z,1.90
2023-01-08T10:06:16.090Z,2.20
2023-01-08T10:09:23.068Z,1.70
2023-01-08T10:12:28.785Z,2.05
2023-01-08T10:15:30.633Z,1.42
2023-01-08T10:18:34.367Z,1.85
2023-01-08T10:21:41.603Z,1.65
2023-01-08T10:24:44.206Z,1.80
2023-01-08T10:31:07.897Z,1.50
2023-01-08T10:34:10.802Z,1.73
2023-01-08T10:37:16.798Z,1.10
2023-01-08T10:40:38.280Z,1.13
2023-01-08T10:44:00.256Z,1.75
2023-01-08T10:47:02.461Z,1.38
2023-01-08T10:50:06.743Z,1.33
2023-01-08T10:53:24.831Z,1.17
2023-01-08T10:59:47.507Z,1.70
2023-01-08T11:02:49.551Z,1.33
2023-01-08T11:05:51.726Z,1.48
2023-01-08T11:08:56.755Z,1.58
2023-01-08T11:11:59.528Z,1.02
2023-01-08T11:15:01.823Z,1.27
2023-01-08T11:18:21.864Z,0.98
2023-01-08T11:21:27.278Z,1.10
2023-01-08T11:24:37.306Z,1.05
2023-01-08T11:27:46.722Z,1.30
2023-01-08T11:31:00.205Z,1.00
2023-01-08T11:34:12.352Z,0.70
2023-01-08T11:37:35.828Z,1.00
2023-01-08T11:40:56.584Z,1.10
2023-01-08T11:44:33.381Z,0.95
2023-01-08T11:47:50.071Z,1.25
2023-01-08T12:03:38.995Z,0.75
2023-01-08T12:06:47.121Z,0.90
2023-01-08T12:10:11.939Z,1.05
2023-01-08T12:13:28.612Z,1.35
2023-01-08T12:16:56.735Z,1.27
2023-01-08T12:20:16.043Z,1.10
2023-01-08T12:23:27.401Z,1.00
2023-01-08T12:26:53.193Z,0.90
2023-01-08T12:30:18.191Z,1.02
2023-01-08T12:33:23.191Z,0.82
2023-01-08T12:36:39.989Z,0.68
2023-01-08T12:39:51.822Z,0.75
2023-01-08T12:43:01.158Z,0.63
2023-01-08T12:46:06.052Z,0.60
2023-01-08T12:49:10.957Z,0.90
2023-01-08T12:52:20.406Z,1.42
2023-01-08T12:55:40.344Z,0.70
2023-01-08T12:58:50.963Z,0.60
2023-01-08T13:02:34.252Z,0.80
2023-01-08T13:05:37.814Z,1.23
2023-01-08T13:08:41.569Z,0.90
2023-01-08T13:11:53.180Z,0.82
2023-01-08T13:14:55.593Z,0.80
2023-01-08T13:18:17.521Z,0.90
2023-01-08T13:21:38.893Z,0.60
2023-01-08T13:24:47.366Z,0.90
2023-01-08T13:31:28.996Z,1.10
2023-01-08T13:34:38.783Z,0.77
2023-01-08T13:37:50.063Z,0.80
2023-01-08T13:40:54.125Z,0.57
2023-01-08T13:44:19.353Z,0.52
2023-01-08T13:47:34.704Z,0.75
2023-01-08T13:50:38.907Z,0.60
2023-01-08T13:53:42.532Z,0.63
2023-01-08T13:56:46.776Z,0.60
2023-01-08T13:59:56.177Z,0.60
2023-01-08T14:02:58.122Z,0.73
2023-01-08T14:06:13.227Z,0.60
2023-01-08T14:09:24.256Z,0.63
2023-01-08T14:12:27.841Z,0.50
2023-01-08T14:15:29.736Z,0.50
2023-01-08T14:18:32.119Z,0.47
2023-01-08T14:21:38.795Z,0.70
2023-01-08T14:24:44.314Z,0.50
2023-01-08T14:27:56.122Z,1.48
2023-01-08T14:30:58.413Z,0.80
2023-01-08T14:34:00.732Z,0.70
2023-01-08T14:37:02.658Z,0.60
2023-01-08T14:40:14.221Z,0.60
2023-01-08T14:43:18.180Z,0.77
2023-01-08T14:46:24.930Z,0.70
2023-01-08T14:49:35.659Z,0.65
2023-01-08T14:52:41.085Z,0.70
2023-01-08T14:55:46.669Z,0.90
2023-01-08T14:58:49.229Z,0.70
2023-01-08T15:05:23.594Z,0.77
2023-01-08T15:08:37.281Z,1.00
2023-01-08T15:11:59.056Z,1.00
2023-01-08T15:15:25.101Z,0.93
2023-01-08T15:18:29.806Z,1.02
2023-01-08T15:21:32.317Z,1.10
2023-01-08T15:27:37.619Z,1.00
2023-01-08T15:30:44.710Z,0.98
2023-01-08T15:33:46.575Z,1.00
2023-01-08T15:36:49.033Z,1.00
2023-01-08T15:39:50.965Z,1.17
2023-01-08T15:42:52.833Z,1.27
2023-01-08T15:45:54.729Z,1.73
2023-01-08T15:48:56.690Z,2.40
2023-01-08T15:55:19.857Z,1.50
2023-01-08T15:58:21.808Z,1.15
2023-01-08T16:01:23.956Z,1.00
2023-01-08T16:04:25.875Z,2.80
2023-01-08T16:10:35.702Z,2.38
2023-01-08T16:13:37.790Z,1.10
2023-01-08T16:16:39.675Z,1.02
2023-01-08T16:19:41.541Z,0.98
2023-01-08T16:22:43.414Z,1.30
2023-01-08T16:25:45.294Z,1.35
2023-01-08T16:28:49.360Z,1.40
2023-01-08T16:31:51.355Z,1.30
2023-01-08T16:34:53.270Z,1.30
2023-01-08T16:37:55.159Z,0.68
2023-01-08T16:40:57.687Z,0.60
2023-01-08T16:44:05.593Z,0.80
2023-01-08T16:47:07.423Z,0.90
2023-01-08T16:50:11.061Z,1.00
2023-01-08T16:53:13.186Z,1.30
2023-01-08T16:56:15.027Z,0.73
2023-01-08T16:59:23.338Z,1.00
2023-01-08T17:02:26.065Z,1.75
2023-01-08T17:05:28.781Z,1.50
2023-01-08T17:08:37.139Z,1.45
2023-01-08T17:11:45.812Z,0.98
2023-01-08T17:14:48.513Z,0.75
2023-01-08T17:17:50.395Z,0.98
2023-01-08T17:20:55.342Z,0.80
2023-01-08T17:23:57.216Z,0.50
2023-01-08T17:26:59.089Z,1.20
2023-01-08T17:30:01.256Z,1.00
2023-01-08T17:33:03.265Z,1.00
2023-01-08T17:36:15.133Z,1.48
2023-01-08T17:39:16.970Z,1.17
2023-01-08T17:42:25.704Z,1.20
2023-01-08T17:45:33.885Z,1.70
2023-01-08T17:48:35.767Z,1.83
2023-01-08T17:51:37.652Z,2.03
2023-01-08T17:54:39.487Z,2.35
2023-01-08T17:57:41.355Z,3.05
2023-01-08T18:00:43.201Z,2.47
2023-01-08T18:03:45.579Z,1.92
2023-01-08T18:06:47.451Z,1.60
2023-01-08T18:09:49.378Z,4.10
2023-01-08T18:12:51.251Z,2.10
2023-01-08T18:16:07.902Z,2.30
2023-01-08T18:19:09.830Z,2.70
2023-01-08T18:22:17.697Z,2.30
2023-01-08T18:25:19.730Z,2.70
2023-01-08T18:28:21.906Z,1.92
2023-01-08T18:31:24.071Z,2.95
2023-01-08T18:34:26.252Z,2.17
2023-01-08T18:37:28.111Z,1.48
2023-01-08T18:40:36.919Z,1.30
2023-01-08T18:43:38.826Z,1.30
2023-01-08T18:46:40.671Z,2.05
2023-01-08T18:49:42.541Z,1.58
2023-01-08T18:52:44.376Z,1.20
2023-01-08T18:55:46.301Z,3.65
2023-01-08T18:58:54.987Z,1.13
2023-01-08T19:01:56.993Z,1.00
2023-01-08T19:04:58.954Z,1.33
2023-01-08T19:08:01.044Z,1.50
2023-01-08T19:11:06.706Z,1.30
2023-01-08T19:14:10.763Z,1.00
2023-01-08T19:17:12.683Z,1.17
2023-01-08T19:20:14.594Z,1.20
2023-01-08T19:23:16.568Z,1.33
2023-01-08T19:26:18.913Z,1.20
2023-01-08T19:29:20.868Z,1.10
2023-01-08T19:32:22.946Z,1.35
2023-01-08T19:35:24.811Z,1.65
2023-01-08T19:38:26.644Z,1.77
2023-01-08T19:41:28.492Z,1.90
2023-01-08T19:44:36.745Z,1.52
2023-01-08T19:47:44.961Z,1.05
2023-01-08T19:50:46.993Z,0.95
2023-01-08T19:53:49.213Z,1.13
2023-01-08T19:56:54.871Z,1.48
2023-01-08T19:59:56.970Z,2.30
2023-01-08T20:02:58.855Z,1.98
2023-01-08T20:06:04.492Z,1.85
2023-01-08T20:09:06.501Z,1.60
2023-01-08T20:12:08.863Z,2.05
2023-01-08T20:15:10.743Z,1.60
2023-01-08T20:18:12.630Z,1.35
2023-01-08T20:21:17.648Z,1.40
2023-01-08T20:24:22.006Z,1.55
2023-01-08T20:27:23.825Z,1.92
2023-01-08T20:30:25.731Z,2.10
2023-01-08T20:33:27.663Z,2.60
2023-01-08T20:36:32.634Z,2.30
2023-01-08T20:39:34.640Z,2.55
2023-01-08T20:42:36.444Z,3.03
2023-01-08T20:45:41.004Z,3.10
2023-01-08T20:48:47.623Z,2.53
2023-01-08T20:51:58.387Z,1.30
2023-01-08T20:55:00.676Z,2.08
2023-01-08T20:58:05.162Z,2.28
2023-01-08T21:01:09.475Z,2.17
2023-01-08T21:04:13.371Z,2.03
2023-01-08T21:07:15.221Z,3.25
2023-01-08T21:10:17.266Z,2.70
2023-01-08T21:13:28.243Z,3.28
2023-01-08T21:16:31.476Z,2.80
2023-01-08T21:19:33.483Z,2.20
2023-01-08T21:22:42.370Z,3.63
2023-01-08T21:25:44.381Z,4.32
2023-01-08T21:28:47.834Z,5.80
2023-01-08T21:31:49.720Z,5.53
2023-01-08T21:34:54.208Z,5.38
2023-01-08T21:37:56.162Z,3.17
2023-01-08T21:41:10.924Z,2.65
2023-01-08T21:44:15.744Z,2.50
2023-01-08T21:47:18.360Z,4.97
2023-01-08T21:53:22.807Z,6.30
2023-01-08T21:56:24.949Z,2.47
2023-01-08T21:59:26.820Z,1.92
2023-01-08T22:02:28.707Z,1.70
2023-01-08T22:05:30.652Z,2.58
2023-01-08T22:08:33.289Z,3.42
2023-01-08T22:14:37.365Z,3.20
2023-01-08T22:17:39.224Z,2.97
2023-01-08T22:20:43.326Z,2.97
2023-01-08T22:23:45.258Z,4.45
2023-01-08T22:26:47.089Z,3.80
2023-01-08T22:29:49.008Z,3.38
2023-01-08T22:32:50.904Z,4.07
2023-01-08T22:35:57.135Z,4.22
2023-01-08T22:38:59.167Z,5.25
2023-01-08T22:42:01.654Z,7.53
2023-01-08T22:45:03.884Z,6.18
2023-01-08T22:48:05.990Z,6.25
2023-01-08T22:51:07.948Z,4.72
2023-01-08T22:54:13.150Z,5.22
2023-01-08T22:57:14.996Z,4.85
2023-01-08T23:00:17.442Z,4.30
2023-01-08T23:03:28.764Z,4.32
2023-01-08T23:06:31.829Z,5.20
2023-01-08T23:09:33.967Z,5.70
2023-01-08T23:12:35.791Z,4.55
2023-01-08T23:15:37.670Z,3.97
2023-01-08T23:18:40.165Z,4.47
2023-01-08T23:21:42.007Z,3.22
2023-01-08T23:24:43.884Z,3.17
2023-01-08T23:27:45.782Z,3.60
2023-01-08T23:30:47.604Z,4.07
2023-01-08T23:33:50.564Z,3.15
2023-01-08T23:36:53.048Z,4.65
2023-01-08T23:39:54.902Z,4.88
2023-01-08T23:42:56.786Z,4.30
2023-01-08T23:46:03.107Z,4.00
2023-01-08T23:49:05.784Z,8.95
2023-01-08T23:55:09.820Z,3.63
2023-01-08T23:58:14.281Z,3.50
